This is the latest recevied weather packets stored in our database for station/object HB9BTL-13. If no packets are shown the sender has not sent any weather packets the latest 10 day(s).
| Time | Temp. | Humidity | Pressure | Rain* | Wind** | Luminosity | Snow |
|---|---|---|---|---|---|---|---|
| 1777332675 | 16.67° C | 45% | 1016.5 hPa | - | - | - | - |
| 1777331769 | 17.22° C | 47% | 1016.5 hPa | - | - | - | - |
| 1777330865 | 16.67° C | 47% | 1016.4 hPa | - | - | - | - |
| 1777329959 | 15.56° C | 58% | 1016.5 hPa | - | - | - | - |
| 1777329054 | 17.78° C | 45% | 1016.4 hPa | - | - | - | - |
| 1777328148 | 17.78° C | 45% | 1016.5 hPa | - | - | - | - |
| 1777327243 | 17.78° C | 45% | 1016.4 hPa | - | - | - | - |
| 1777326338 | 17.78° C | 46% | 1016.6 hPa | - | - | - | - |
| 1777325432 | 18.33° C | 44% | 1016.6 hPa | - | - | - | - |
| 1777324527 | 18.33° C | 44% | 1016.7 hPa | - | - | - | - |
| 1777323621 | 18.33° C | 43% | 1016.7 hPa | - | - | - | - |
| 1777322716 | 18.33° C | 46% | 1016.8 hPa | - | - | - | - |
| 1777321811 | 18.33° C | 44% | 1016.9 hPa | - | - | - | - |
| 1777320905 | 17.22° C | 50% | 1016.8 hPa | - | - | - | - |
| 1777320000 | 17.78° C | 50% | 1016.8 hPa | - | - | - | - |
| 1777319094 | 16.67° C | 52% | 1016.8 hPa | - | - | - | - |
| 1777318189 | 17.22° C | 48% | 1016.8 hPa | - | - | - | - |
| 1777317283 | 17.78° C | 48% | 1016.8 hPa | - | - | - | - |
| 1777316378 | 17.78° C | 46% | 1016.7 hPa | - | - | - | - |
| 1777315473 | 18.33° C | 44% | 1016.6 hPa | - | - | - | - |
| 1777314567 | 18.89° C | 43% | 1016.6 hPa | - | - | - | - |
| 1777313662 | 19.44° C | 43% | 1016.6 hPa | - | - | - | - |
| 1777312756 | 19.44° C | 44% | 1016.6 hPa | - | - | - | - |
| 1777311852 | 20° C | 42% | 1016.7 hPa | - | - | - | - |
| 1777310946 | 20.56° C | 42% | 1016.6 hPa | - | - | - | - |
* Rain since midnight (hover to see other rain measurements)
** Current wind speed in m/s (hover to see current wind gust speed)